sensor_id;sensor_type;location;lat;lon;timestamp;pressure;altitude;pressure_sealevel;temperature;humidity
64080;BME280;51042;49.696;10.808;2023-01-28T00:00:27;99079.28;;;0.32;97.76
64080;BME280;51042;49.696;10.808;2023-01-28T00:02:52;99066.94;;;0.31;97.81
64080;BME280;51042;49.696;10.808;2023-01-28T00:05:17;99063.44;;;0.30;98.88
64080;BME280;51042;49.696;10.808;2023-01-28T00:07:42;99071.53;;;0.30;98.49
64080;BME280;51042;49.696;10.808;2023-01-28T00:10:08;99070.84;;;0.33;99.17
64080;BME280;51042;49.696;10.808;2023-01-28T00:12:33;99061.63;;;0.34;99.42
64080;BME280;51042;49.696;10.808;2023-01-28T00:14:59;99071.63;;;0.34;99.60
64080;BME280;51042;49.696;10.808;2023-01-28T00:17:24;99070.13;;;0.36;100.00
64080;BME280;51042;49.696;10.808;2023-01-28T00:19:49;99070.13;;;0.36;100.00
64080;BME280;51042;49.696;10.808;2023-01-28T00:22:14;99065.03;;;0.31;100.00
64080;BME280;51042;49.696;10.808;2023-01-28T00:24:39;99066.59;;;0.32;100.00
64080;BME280;51042;49.696;10.808;2023-01-28T00:27:04;99062.66;;;0.30;100.00
64080;BME280;51042;49.696;10.808;2023-01-28T00:29:30;99058.75;;;0.27;100.00
64080;BME280;51042;49.696;10.808;2023-01-28T00:31:55;99061.13;;;0.29;100.00
64080;BME280;51042;49.696;10.808;2023-01-28T00:34:20;99057.53;;;0.25;100.00
64080;BME280;51042;49.696;10.808;2023-01-28T00:36:46;99062.16;;;0.24;100.00
64080;BME280;51042;49.696;10.808;2023-01-28T00:39:21;99063.66;;;0.22;100.00
64080;BME280;51042;49.696;10.808;2023-01-28T00:41:46;99059.81;;;0.23;100.00
64080;BME280;51042;49.696;10.808;2023-01-28T00:44:11;99062.16;;;0.24;100.00
64080;BME280;51042;49.696;10.808;2023-01-28T00:46:36;99058.31;;;0.25;100.00
64080;BME280;51042;49.696;10.808;2023-01-28T00:49:02;99074.97;;;0.27;100.00
64080;BME280;51042;49.696;10.808;2023-01-28T00:51:27;99064.94;;;0.28;100.00
64080;BME280;51042;49.696;10.808;2023-01-28T00:53:52;99070.69;;;0.26;100.00
64080;BME280;51042;49.696;10.808;2023-01-28T00:56:18;99073.81;;;0.28;100.00
64080;BME280;51042;49.696;10.808;2023-01-28T00:58:43;99068.06;;;0.30;100.00
64080;BME280;51042;49.696;10.808;2023-01-28T01:01:19;99077.31;;;0.29;100.00
64080;BME280;51042;49.696;10.808;2023-01-28T01:03:44;99068.06;;;0.30;100.00
64080;BME280;51042;49.696;10.808;2023-01-28T01:06:13;99071.19;;;0.32;100.00
64080;BME280;51042;49.696;10.808;2023-01-28T01:08:39;99061.97;;;0.33;100.00
64080;BME280;51042;49.696;10.808;2023-01-28T01:11:06;99062.66;;;0.30;100.00
64080;BME280;51042;49.696;10.808;2023-01-28T01:13:32;99081.22;;;0.31;100.00
64080;BME280;51042;49.696;10.808;2023-01-28T01:18:30;99073.13;;;0.31;100.00
64080;BME280;51042;49.696;10.808;2023-01-28T01:20:55;99068.06;;;0.30;100.00
64080;BME280;51042;49.696;10.808;2023-01-28T01:23:28;99068.06;;;0.30;100.00
64080;BME280;51042;49.696;10.808;2023-01-28T01:25:54;99073.91;;;0.32;100.00
64080;BME280;51042;49.696;10.808;2023-01-28T01:28:20;99076.59;;;0.32;100.00
64080;BME280;51042;49.696;10.808;2023-01-28T01:30:46;99072.78;;;0.33;100.00
64080;BME280;51042;49.696;10.808;2023-01-28T01:33:11;99082.09;;;0.35;100.00
64080;BME280;51042;49.696;10.808;2023-01-28T01:35:37;99080.94;;;0.36;100.00
64080;BME280;51042;49.696;10.808;2023-01-28T01:38:02;99085.56;;;0.36;100.00
64080;BME280;51042;49.696;10.808;2023-01-28T01:40:27;99085.56;;;0.36;100.00
64080;BME280;51042;49.696;10.808;2023-01-28T01:42:53;99083.63;;;0.36;100.00
64080;BME280;51042;49.696;10.808;2023-01-28T01:45:18;99090.53;;;0.34;100.00
64080;BME280;51042;49.696;10.808;2023-01-28T01:47:45;99091.31;;;0.34;100.00
64080;BME280;51042;49.696;10.808;2023-01-28T01:52:36;99094.72;;;0.31;100.00
64080;BME280;51042;49.696;10.808;2023-01-28T01:55:03;99097.41;;;0.31;100.00
64080;BME280;51042;49.696;10.808;2023-01-28T01:57:31;99092.78;;;0.32;100.00
64080;BME280;51042;49.696;10.808;2023-01-28T01:59:57;99094.38;;;0.33;100.00
64080;BME280;51042;49.696;10.808;2023-01-28T02:02:30;99098.53;;;0.30;100.00
64080;BME280;51042;49.696;10.808;2023-01-28T02:04:56;99097.75;;;0.30;100.00
64080;BME280;51042;49.696;10.808;2023-01-28T02:07:22;99095.75;;;0.27;100.00
64080;BME280;51042;49.696;10.808;2023-01-28T02:09:47;99096.22;;;0.29;100.00
64080;BME280;51042;49.696;10.808;2023-01-28T02:14:45;99091.22;;;0.31;100.00
64080;BME280;51042;49.696;10.808;2023-01-28T02:17:12;99090.44;;;0.30;100.00
64080;BME280;51042;49.696;10.808;2023-01-28T02:19:53;99095.06;;;0.30;100.00
64080;BME280;51042;49.696;10.808;2023-01-28T02:30:05;99105.16;;;0.33;100.00
64080;BME280;51042;49.696;10.808;2023-01-28T02:37:37;99090.09;;;0.32;99.39
64080;BME280;51042;49.696;10.808;2023-01-28T02:40:05;99107.06;;;0.32;99.36
64080;BME280;51042;49.696;10.808;2023-01-28T02:42:32;99099.75;;;0.33;98.76
64080;BME280;51042;49.696;10.808;2023-01-28T02:44:59;99107.88;;;0.33;98.62
64080;BME280;51042;49.696;10.808;2023-01-28T02:47:24;99105.59;;;0.35;98.69
64080;BME280;51042;49.696;10.808;2023-01-28T02:50:34;99111.00;;;0.35;99.32
64080;BME280;51042;49.696;10.808;2023-01-28T02:55:55;99116.81;;;0.37;99.38
64080;BME280;51042;49.696;10.808;2023-01-28T03:06:29;99121.00;;;0.34;99.86
64080;BME280;51042;49.696;10.808;2023-01-28T03:08:57;99116.75;;;0.33;99.78
64080;BME280;51042;49.696;10.808;2023-01-28T03:11:43;99113.69;;;0.35;100.00
64080;BME280;51042;49.696;10.808;2023-01-28T03:14:28;99113.25;;;0.33;99.88
64080;BME280;51042;49.696;10.808;2023-01-28T03:20:17;99120.91;;;0.31;99.77
64080;BME280;51042;49.696;10.808;2023-01-28T03:23:05;99118.59;;;0.29;100.00
64080;BME280;51042;49.696;10.808;2023-01-28T03:25:51;99120.84;;;0.27;100.00
64080;BME280;51042;49.696;10.808;2023-01-28T03:28:38;99128.50;;;0.25;100.00
64080;BME280;51042;49.696;10.808;2023-01-28T03:31:22;99131.19;;;0.25;100.00
64080;BME280;51042;49.696;10.808;2023-01-28T03:34:07;99133.47;;;0.23;100.00
64080;BME280;51042;49.696;10.808;2023-01-28T03:36:51;99126.84;;;0.21;100.00
64080;BME280;51042;49.696;10.808;2023-01-28T03:39:19;99130.25;;;0.18;100.00
64080;BME280;51042;49.696;10.808;2023-01-28T03:41:55;99138.34;;;0.18;100.00
64080;BME280;51042;49.696;10.808;2023-01-28T03:44:20;99138.34;;;0.18;100.00
64080;BME280;51042;49.696;10.808;2023-01-28T03:47:04;99136.31;;;0.15;100.00
64080;BME280;51042;49.696;10.808;2023-01-28T03:49:31;99138.25;;;0.14;100.00
64080;BME280;51042;49.696;10.808;2023-01-28T03:51:56;99137.44;;;0.14;100.00
64080;BME280;51042;49.696;10.808;2023-01-28T03:54:21;99138.56;;;0.13;100.00
64080;BME280;51042;49.696;10.808;2023-01-28T03:56:46;99142.44;;;0.12;100.00
64080;BME280;51042;49.696;10.808;2023-01-28T03:59:13;99145.88;;;0.12;100.00
64080;BME280;51042;49.696;10.808;2023-01-28T04:01:38;99145.56;;;0.14;100.00
64080;BME280;51042;49.696;10.808;2023-01-28T04:04:03;99152.06;;;0.13;100.00
64080;BME280;51042;49.696;10.808;2023-01-28T04:06:28;99158.25;;;0.13;100.00
64080;BME280;51042;49.696;10.808;2023-01-28T04:08:54;99168.25;;;0.13;100.00
64080;BME280;51042;49.696;10.808;2023-01-28T04:11:23;99162.88;;;0.13;100.00
64080;BME280;51042;49.696;10.808;2023-01-28T04:13:50;99163.66;;;0.13;100.00
64080;BME280;51042;49.696;10.808;2023-01-28T04:16:15;99164.44;;;0.14;100.00
64080;BME280;51042;49.696;10.808;2023-01-28T04:18:44;99166.34;;;0.13;100.00
64080;BME280;51042;49.696;10.808;2023-01-28T04:21:10;99166.72;;;0.12;100.00
64080;BME280;51042;49.696;10.808;2023-01-28T04:23:35;99160.53;;;0.11;100.00
64080;BME280;51042;49.696;10.808;2023-01-28T04:26:00;99162.88;;;0.13;100.00
64080;BME280;51042;49.696;10.808;2023-01-28T04:28:25;99169.41;;;0.12;100.00
64080;BME280;51042;49.696;10.808;2023-01-28T04:30:51;99167.47;;;0.12;100.00
64080;BME280;51042;49.696;10.808;2023-01-28T04:33:16;99171.75;;;0.13;100.00
64080;BME280;51042;49.696;10.808;2023-01-28T04:35:42;99171.41;;;0.15;100.00
64080;BME280;51042;49.696;10.808;2023-01-28T04:38:07;99166.00;;;0.15;100.00
64080;BME280;51042;49.696;10.808;2023-01-28T04:40:32;99166.00;;;0.15;100.00
64080;BME280;51042;49.696;10.808;2023-01-28T04:42:57;99159.81;;;0.14;100.00
64080;BME280;51042;49.696;10.808;2023-01-28T04:45:23;99161.75;;;0.14;100.00
64080;BME280;51042;49.696;10.808;2023-01-28T04:47:48;99164.09;;;0.15;100.00
64080;BME280;51042;49.696;10.808;2023-01-28T04:50:14;99167.59;;;0.16;100.00
64080;BME280;51042;49.696;10.808;2023-01-28T04:52:39;99170.28;;;0.16;100.00
64080;BME280;51042;49.696;10.808;2023-01-28T04:55:04;99170.63;;;0.14;100.00
64080;BME280;51042;49.696;10.808;2023-01-28T04:57:30;99177.25;;;0.17;100.00
64080;BME280;51042;49.696;10.808;2023-01-28T04:59:56;99177.66;;;0.19;100.00
64080;BME280;51042;49.696;10.808;2023-01-28T05:02:21;99178.81;;;0.18;100.00
64080;BME280;51042;49.696;10.808;2023-01-28T05:04:46;99178.81;;;0.18;100.00
64080;BME280;51042;49.696;10.808;2023-01-28T05:07:11;99176.13;;;0.18;100.00
64080;BME280;51042;49.696;10.808;2023-01-28T05:09:37;99181.94;;;0.20;100.00
64080;BME280;51042;49.696;10.808;2023-01-28T05:12:02;99182.28;;;0.18;100.00
64080;BME280;51042;49.696;10.808;2023-01-28T05:14:27;99174.97;;;0.19;100.00
64080;BME280;51042;49.696;10.808;2023-01-28T05:16:52;99180.75;;;0.17;100.00
64080;BME280;51042;49.696;10.808;2023-01-28T05:19:18;99174.56;;;0.17;100.00
64080;BME280;51042;49.696;10.808;2023-01-28T05:21:43;99174.09;;;0.15;100.00
64080;BME280;51042;49.696;10.808;2023-01-28T05:24:08;99181.88;;;0.16;100.00
64080;BME280;51042;49.696;10.808;2023-01-28T05:26:33;99185.69;;;0.15;100.00
64080;BME280;51042;49.696;10.808;2023-01-28T05:28:59;99193.00;;;0.15;100.00
64080;BME280;51042;49.696;10.808;2023-01-28T05:31:24;99188.84;;;0.17;100.00
64080;BME280;51042;49.696;10.808;2023-01-28T05:33:49;99185.34;;;0.17;100.00
64080;BME280;51042;49.696;10.808;2023-01-28T05:36:16;99186.47;;;0.16;100.00
64080;BME280;51042;49.696;10.808;2023-01-28T05:38:42;99193.78;;;0.15;100.00
64080;BME280;51042;49.696;10.808;2023-01-28T05:41:07;99191.09;;;0.15;100.00
64080;BME280;51042;49.696;10.808;2023-01-28T05:43:32;99194.22;;;0.17;100.00
64080;BME280;51042;49.696;10.808;2023-01-28T05:45:57;99199.50;;;0.14;100.00
64080;BME280;51042;49.696;10.808;2023-01-28T05:48:22;99197.16;;;0.12;100.00
64080;BME280;51042;49.696;10.808;2023-01-28T05:50:47;99193.00;;;0.15;100.00
64080;BME280;51042;49.696;10.808;2023-01-28T05:53:13;99196.47;;;0.15;100.00
64080;BME280;51042;49.696;10.808;2023-01-28T05:55:38;99196.13;;;0.17;100.00
64080;BME280;51042;49.696;10.808;2023-01-28T05:58:03;99189.16;;;0.16;100.00
64080;BME280;51042;49.696;10.808;2023-01-28T06:00:28;99198.84;;;0.17;100.00
64080;BME280;51042;49.696;10.808;2023-01-28T06:02:54;99203.00;;;0.14;100.00
64080;BME280;51042;49.696;10.808;2023-01-28T06:05:19;99195.25;;;0.13;100.00
64080;BME280;51042;49.696;10.808;2023-01-28T06:07:45;99207.63;;;0.14;100.00
64080;BME280;51042;49.696;10.808;2023-01-28T06:10:10;99199.97;;;0.16;100.00
64080;BME280;51042;49.696;10.808;2023-01-28T06:12:36;99201.53;;;0.17;100.00
64080;BME280;51042;49.696;10.808;2023-01-28T06:15:01;99198.84;;;0.17;100.00
64080;BME280;51042;49.696;10.808;2023-01-28T06:17:26;99208.06;;;0.16;100.00
64080;BME280;51042;49.696;10.808;2023-01-28T06:19:51;99205.38;;;0.16;100.00
64080;BME280;51042;49.696;10.808;2023-01-28T06:22:16;99220.44;;;0.17;100.00
64080;BME280;51042;49.696;10.808;2023-01-28T06:24:42;99218.06;;;0.15;100.00
64080;BME280;51042;49.696;10.808;2023-01-28T06:27:07;99216.84;;;0.13;100.00
64080;BME280;51042;49.696;10.808;2023-01-28T06:29:32;99216.03;;;0.12;100.00
64080;BME280;51042;49.696;10.808;2023-01-28T06:31:57;99218.84;;;0.16;100.00
64080;BME280;51042;49.696;10.808;2023-01-28T06:34:22;99225.03;;;0.16;100.00
64080;BME280;51042;49.696;10.808;2023-01-28T06:36:48;99225.03;;;0.16;100.00
64080;BME280;51042;49.696;10.808;2023-01-28T06:39:14;99228.53;;;0.17;100.00
64080;BME280;51042;49.696;10.808;2023-01-28T06:41:40;99240.09;;;0.17;100.00
64080;BME280;51042;49.696;10.808;2023-01-28T06:44:05;99233.47;;;0.15;100.00
64080;BME280;51042;49.696;10.808;2023-01-28T06:46:30;99243.03;;;0.12;100.00
64080;BME280;51042;49.696;10.808;2023-01-28T06:48:55;99244.97;;;0.12;100.00
64080;BME280;51042;49.696;10.808;2023-01-28T06:51:20;99253.16;;;0.15;100.00
64080;BME280;51042;49.696;10.808;2023-01-28T06:53:45;99246.28;;;0.18;100.00
64080;BME280;51042;49.696;10.808;2023-01-28T06:56:11;99252.81;;;0.17;100.00
64080;BME280;51042;49.696;10.808;2023-01-28T06:58:36;99256.72;;;0.19;100.00
64080;BME280;51042;49.696;10.808;2023-01-28T07:01:01;99256.81;;;0.23;100.00
64080;BME280;51042;49.696;10.808;2023-01-28T07:03:27;99249.06;;;0.21;100.00
64080;BME280;51042;49.696;10.808;2023-01-28T07:05:52;99253.34;;;0.22;100.00
64080;BME280;51042;49.696;10.808;2023-01-28T07:08:17;99259.53;;;0.23;100.00
64080;BME280;51042;49.696;10.808;2023-01-28T07:10:43;99262.31;;;0.26;100.00
64080;BME280;51042;49.696;10.808;2023-01-28T07:13:08;99258.41;;;0.24;100.00
64080;BME280;51042;49.696;10.808;2023-01-28T07:15:34;99268.50;;;0.27;100.00
64080;BME280;51042;49.696;10.808;2023-01-28T07:17:59;99265.00;;;0.26;100.00
64080;BME280;51042;49.696;10.808;2023-01-28T07:20:24;99265.00;;;0.26;100.00
64080;BME280;51042;49.696;10.808;2023-01-28T07:22:49;99275.47;;;0.28;100.00
64080;BME280;51042;49.696;10.808;2023-01-28T07:25:14;99271.19;;;0.27;100.00
64080;BME280;51042;49.696;10.808;2023-01-28T07:27:47;99277.03;;;0.29;100.00
64080;BME280;51042;49.696;10.808;2023-01-28T07:30:13;99280.53;;;0.29;100.00
64080;BME280;51042;49.696;10.808;2023-01-28T07:32:38;99275.13;;;0.29;100.00
64080;BME280;51042;49.696;10.808;2023-01-28T07:35:03;99282.84;;;0.31;100.00
64080;BME280;51042;49.696;10.808;2023-01-28T07:37:29;99282.84;;;0.31;99.95
64080;BME280;51042;49.696;10.808;2023-01-28T07:39:54;99276.34;;;0.32;100.00
64080;BME280;51042;49.696;10.808;2023-01-28T07:42:19;99272.50;;;0.33;99.75
64080;BME280;51042;49.696;10.808;2023-01-28T07:44:44;99272.50;;;0.33;99.10
64080;BME280;51042;49.696;10.808;2023-01-28T07:47:09;99272.19;;;0.34;98.56
64080;BME280;51042;49.696;10.808;2023-01-28T07:49:34;99284.19;;;0.37;99.48
64080;BME280;51042;49.696;10.808;2023-01-28T07:52:00;99273.03;;;0.38;99.08
64080;BME280;51042;49.696;10.808;2023-01-28T07:54:25;99280.03;;;0.39;97.51
64080;BME280;51042;49.696;10.808;2023-01-28T07:56:50;99287.34;;;0.39;97.37
64080;BME280;51042;49.696;10.808;2023-01-28T07:59:15;99290.03;;;0.39;97.28
64080;BME280;51042;49.696;10.808;2023-01-28T08:01:40;99286.53;;;0.38;96.08
64080;BME280;51042;49.696;10.808;2023-01-28T08:04:05;99283.16;;;0.42;97.82
64080;BME280;51042;49.696;10.808;2023-01-28T08:06:31;99287.06;;;0.44;96.95
64080;BME280;51042;49.696;10.808;2023-01-28T08:09:05;99283.25;;;0.45;95.88
64080;BME280;51042;49.696;10.808;2023-01-28T08:11:32;99296.03;;;0.48;95.68
64080;BME280;51042;49.696;10.808;2023-01-28T08:13:57;99296.50;;;0.50;94.99
64080;BME280;51042;49.696;10.808;2023-01-28T08:16:22;99291.16;;;0.54;95.28
64080;BME280;51042;49.696;10.808;2023-01-28T08:18:47;99293.97;;;0.57;95.79
64080;BME280;51042;49.696;10.808;2023-01-28T08:21:12;99302.53;;;0.59;93.80
64080;BME280;51042;49.696;10.808;2023-01-28T08:23:37;99295.91;;;0.57;93.19
64080;BME280;51042;49.696;10.808;2023-01-28T08:26:03;99299.47;;;0.61;93.22
64080;BME280;51042;49.696;10.808;2023-01-28T08:28:28;99299.19;;;0.66;93.28
64080;BME280;51042;49.696;10.808;2023-01-28T08:30:53;99297.75;;;0.68;92.32
64080;BME280;51042;49.696;10.808;2023-01-28T08:33:18;99301.22;;;0.69;92.19
64080;BME280;51042;49.696;10.808;2023-01-28T08:35:44;99297.59;;;0.77;91.65
64080;BME280;51042;49.696;10.808;2023-01-28T08:38:10;99299.66;;;0.83;91.61
64080;BME280;51042;49.696;10.808;2023-01-28T08:40:35;99305.25;;;0.91;91.59
64080;BME280;51042;49.696;10.808;2023-01-28T08:43:01;99300.00;;;0.98;91.38
64080;BME280;51042;49.696;10.808;2023-01-28T08:45:26;99307.78;;;0.99;90.88
64080;BME280;51042;49.696;10.808;2023-01-28T08:47:56;99314.56;;;1.09;91.02
64080;BME280;51042;49.696;10.808;2023-01-28T08:50:22;99311.44;;;1.22;89.62
64080;BME280;51042;49.696;10.808;2023-01-28T08:52:52;99312.56;;;1.21;88.41
64080;BME280;51042;49.696;10.808;2023-01-28T08:55:18;99304.91;;;1.23;88.44
64080;BME280;51042;49.696;10.808;2023-01-28T08:57:43;99305.59;;;1.36;88.16
64080;BME280;51042;49.696;10.808;2023-01-28T09:00:09;99305.47;;;1.33;86.16
64080;BME280;51042;49.696;10.808;2023-01-28T09:02:35;99310.19;;;1.36;85.89
64080;BME280;51042;49.696;10.808;2023-01-28T09:05:01;99315.22;;;1.37;85.39
64080;BME280;51042;49.696;10.808;2023-01-28T09:07:26;99310.44;;;1.46;85.86
64080;BME280;51042;49.696;10.808;2023-01-28T09:09:51;99316.69;;;1.50;83.72
64080;BME280;51042;49.696;10.808;2023-01-28T09:12:16;99321.69;;;1.48;85.00
64080;BME280;51042;49.696;10.808;2023-01-28T09:14:41;99322.38;;;1.45;84.83
64080;BME280;51042;49.696;10.808;2023-01-28T09:17:06;99329.19;;;1.39;84.85
64080;BME280;51042;49.696;10.808;2023-01-28T09:19:31;99330.06;;;1.43;84.49
64080;BME280;51042;49.696;10.808;2023-01-28T09:21:57;99333.19;;;1.45;84.21
64080;BME280;51042;49.696;10.808;2023-01-28T09:24:22;99334.16;;;1.37;83.84
64080;BME280;51042;49.696;10.808;2023-01-28T09:26:48;99332.69;;;1.40;84.89
64080;BME280;51042;49.696;10.808;2023-01-28T09:29:13;99338.44;;;1.38;84.24
64080;BME280;51042;49.696;10.808;2023-01-28T09:31:38;99336.34;;;1.32;84.00
64080;BME280;51042;49.696;10.808;2023-01-28T09:34:04;99341.69;;;1.28;85.83
64080;BME280;51042;49.696;10.808;2023-01-28T09:36:29;99336.09;;;1.21;85.64
64080;BME280;51042;49.696;10.808;2023-01-28T09:38:54;99344.56;;;1.19;85.84
64080;BME280;51042;49.696;10.808;2023-01-28T09:41:27;99356.88;;;1.17;84.08
64080;BME280;51042;49.696;10.808;2023-01-28T09:46:36;99345.78;;;1.06;83.66
64080;BME280;51042;49.696;10.808;2023-01-28T09:49:04;99346.59;;;1.07;83.19
64080;BME280;51042;49.696;10.808;2023-01-28T09:51:37;99343.50;;;1.08;84.20
64080;BME280;51042;49.696;10.808;2023-01-28T09:54:05;99353.31;;;1.13;84.69
64080;BME280;51042;49.696;10.808;2023-01-28T09:56:38;99347.97;;;1.16;84.79
64080;BME280;51042;49.696;10.808;2023-01-28T09:59:13;99353.91;;;1.22;84.45
64080;BME280;51042;49.696;10.808;2023-01-28T10:01:42;99354.84;;;1.30;84.27
64080;BME280;51042;49.696;10.808;2023-01-28T10:06:53;99355.03;;;1.37;83.10
64080;BME280;51042;49.696;10.808;2023-01-28T10:17:16;99356.44;;;1.31;82.42
64080;BME280;51042;49.696;10.808;2023-01-28T10:19:47;99358.25;;;1.27;82.97
64080;BME280;51042;49.696;10.808;2023-01-28T10:22:17;99357.31;;;1.19;82.58
64080;BME280;51042;49.696;10.808;2023-01-28T10:24:47;99358.19;;;1.23;83.65
64080;BME280;51042;49.696;10.808;2023-01-28T10:27:21;99349.63;;;1.21;82.36
64080;BME280;51042;49.696;10.808;2023-01-28T10:29:47;99357.38;;;1.22;82.96
64080;BME280;51042;49.696;10.808;2023-01-28T10:34:48;99348.66;;;1.29;82.55
64080;BME280;51042;49.696;10.808;2023-01-28T10:37:15;99355.44;;;1.39;81.32
64080;BME280;51042;49.696;10.808;2023-01-28T10:39:40;99352.69;;;1.35;81.70
64080;BME280;51042;49.696;10.808;2023-01-28T10:42:19;99354.84;;;1.30;81.40
64080;BME280;51042;49.696;10.808;2023-01-28T10:44:45;99356.78;;;1.29;81.21
64080;BME280;51042;49.696;10.808;2023-01-28T10:47:12;99356.34;;;1.27;81.11
64080;BME280;51042;49.696;10.808;2023-01-28T10:49:43;99366.09;;;1.32;81.31
64080;BME280;51042;49.696;10.808;2023-01-28T10:52:11;99356.06;;;1.48;81.92
64080;BME280;51042;49.696;10.808;2023-01-28T10:54:36;99353.88;;;1.53;81.50
64080;BME280;51042;49.696;10.808;2023-01-28T10:57:02;99358.84;;;1.51;81.00
64080;BME280;51042;49.696;10.808;2023-01-28T11:04:26;99355.44;;;1.54;79.92
64080;BME280;51042;49.696;10.808;2023-01-28T11:07:34;99358.84;;;1.51;81.59
64080;BME280;51042;49.696;10.808;2023-01-28T11:09:43;99358.16;;;1.39;79.79
64080;BME280;51042;49.696;10.808;2023-01-28T11:12:13;99357.81;;;1.40;81.14
64080;BME280;51042;49.696;10.808;2023-01-28T11:14:51;99368.28;;;1.42;79.29
64080;BME280;51042;49.696;10.808;2023-01-28T11:17:17;99363.56;;;1.39;79.75
64080;BME280;51042;49.696;10.808;2023-01-28T11:19:43;99371.91;;;1.49;79.75
64080;BME280;51042;49.696;10.808;2023-01-28T11:22:22;99358.69;;;1.44;80.02
64080;BME280;51042;49.696;10.808;2023-01-28T11:24:48;99369.88;;;1.43;80.60
64080;BME280;51042;49.696;10.808;2023-01-28T11:27:15;99371.16;;;1.33;80.79
64080;BME280;51042;49.696;10.808;2023-01-28T11:29:41;99354.66;;;1.38;80.27
64080;BME280;51042;49.696;10.808;2023-01-28T11:32:19;99362.09;;;1.41;79.64
64080;BME280;51042;49.696;10.808;2023-01-28T11:34:52;99360.06;;;1.38;80.41
64080;BME280;51042;49.696;10.808;2023-01-28T11:37:19;99369.16;;;1.46;79.76
64080;BME280;51042;49.696;10.808;2023-01-28T11:39:45;99363.19;;;1.56;79.02
64080;BME280;51042;49.696;10.808;2023-01-28T11:44:35;99355.47;;;1.74;76.75
64080;BME280;51042;49.696;10.808;2023-01-28T11:49:48;99359.53;;;1.99;76.55
64080;BME280;51042;49.696;10.808;2023-01-28T11:54:55;99363.66;;;1.93;78.74
64080;BME280;51042;49.696;10.808;2023-01-28T11:57:35;99356.81;;;1.99;78.40
64080;BME280;51042;49.696;10.808;2023-01-28T12:00:27;99350.50;;;2.11;78.14
64080;BME280;51042;49.696;10.808;2023-01-28T12:08:28;99353.94;;;2.08;75.65
64080;BME280;51042;49.696;10.808;2023-01-28T12:11:09;99351.41;;;1.99;76.71
64080;BME280;51042;49.696;10.808;2023-01-28T12:14:02;99353.59;;;1.93;77.79
64080;BME280;51042;49.696;10.808;2023-01-28T12:24:34;99350.56;;;1.60;77.58
64080;BME280;51042;49.696;10.808;2023-01-28T12:27:06;99355.97;;;1.44;76.49
64080;BME280;51042;49.696;10.808;2023-01-28T12:29:40;99352.47;;;1.59;77.34
64080;BME280;51042;49.696;10.808;2023-01-28T12:34:48;99343.75;;;1.50;75.98
64080;BME280;51042;49.696;10.808;2023-01-28T12:42:41;99341.44;;;1.68;76.59
64080;BME280;51042;49.696;10.808;2023-01-28T12:47:40;99336.00;;;1.49;76.48
64080;BME280;51042;49.696;10.808;2023-01-28T12:52:38;99337.81;;;1.60;76.71
64080;BME280;51042;49.696;10.808;2023-01-28T12:57:39;99346.09;;;1.52;75.10
64080;BME280;51042;49.696;10.808;2023-01-28T13:02:38;99340.81;;;1.75;74.94
64080;BME280;51042;49.696;10.808;2023-01-28T13:05:10;99340.75;;;1.71;76.17
64080;BME280;51042;49.696;10.808;2023-01-28T13:07:39;99341.22;;;1.57;75.67
64080;BME280;51042;49.696;10.808;2023-01-28T13:12:38;99344.81;;;1.46;75.51
64080;BME280;51042;49.696;10.808;2023-01-28T13:15:04;99350.31;;;1.34;75.73
64080;BME280;51042;49.696;10.808;2023-01-28T13:17:30;99355.28;;;1.16;76.07
64080;BME280;51042;49.696;10.808;2023-01-28T13:19:56;99357.22;;;1.15;76.29
64080;BME280;51042;49.696;10.808;2023-01-28T13:22:26;99355.56;;;1.11;76.94
64080;BME280;51042;49.696;10.808;2023-01-28T13:24:52;99356.06;;;1.16;78.83
64080;BME280;51042;49.696;10.808;2023-01-28T13:27:21;99360.25;;;1.14;78.44
64080;BME280;51042;49.696;10.808;2023-01-28T13:29:47;99358.72;;;1.13;76.69
64080;BME280;51042;49.696;10.808;2023-01-28T13:32:26;99361.63;;;0.92;77.18
64080;BME280;51042;49.696;10.808;2023-01-28T13:34:57;99360.31;;;0.86;77.54
64080;BME280;51042;49.696;10.808;2023-01-28T13:40:08;99361.19;;;0.90;76.86
64080;BME280;51042;49.696;10.808;2023-01-28T13:42:45;99369.72;;;0.76;77.63
64080;BME280;51042;49.696;10.808;2023-01-28T13:45:21;99364.81;;;0.66;76.99
64080;BME280;51042;49.696;10.808;2023-01-28T13:47:51;99363.34;;;0.69;77.85
64080;BME280;51042;49.696;10.808;2023-01-28T13:50:19;99368.84;;;0.72;77.42
64080;BME280;51042;49.696;10.808;2023-01-28T13:52:54;99374.69;;;0.74;77.45
64080;BME280;51042;49.696;10.808;2023-01-28T13:55:24;99375.19;;;0.64;77.46
64080;BME280;51042;49.696;10.808;2023-01-28T14:00:34;99387.63;;;0.53;76.72
64080;BME280;51042;49.696;10.808;2023-01-28T14:08:27;99392.66;;;0.55;77.94
64080;BME280;51042;49.696;10.808;2023-01-28T14:13:37;99397.53;;;0.49;77.20
64080;BME280;51042;49.696;10.808;2023-01-28T14:18:36;99406.16;;;0.27;77.85
64080;BME280;51042;49.696;10.808;2023-01-28T14:21:09;99407.28;;;0.26;76.47
64080;BME280;51042;49.696;10.808;2023-01-28T14:23:35;99418.09;;;0.14;76.39
64080;BME280;51042;49.696;10.808;2023-01-28T14:33:41;99423.50;;;0.14;75.87
64080;BME280;51042;49.696;10.808;2023-01-28T14:36:09;99428.66;;;0.19;76.99
64080;BME280;51042;49.696;10.808;2023-01-28T14:38:37;99416.19;;;0.14;75.76
64080;BME280;51042;49.696;10.808;2023-01-28T14:41:04;99424.41;;;0.18;75.97
64080;BME280;51042;49.696;10.808;2023-01-28T14:43:29;99430.56;;;0.18;75.54
64080;BME280;51042;49.696;10.808;2023-01-28T14:48:22;99428.34;;;0.08;75.04
64080;BME280;51042;49.696;10.808;2023-01-28T14:53:25;99435.09;;;0.02;76.89
64080;BME280;51042;49.696;10.808;2023-01-28T14:58:29;99437.69;;;-0.02;77.17
64080;BME280;51042;49.696;10.808;2023-01-28T15:00:57;99435.56;;;-0.08;75.58
64080;BME280;51042;49.696;10.808;2023-01-28T15:03:23;99437.47;;;-0.09;76.78
64080;BME280;51042;49.696;10.808;2023-01-28T15:05:48;99441.84;;;-0.04;76.46